This site, now in its 15th season, is a labour of love and fun from one of Ottawa's most avid time trialists and number crunchers. It adheres to and is permitted by the laws of Canada, promotes the objectives of every bicycle club whose results are shown, and is donated free of charge by myself for your enjoyment and usage. If you would like results from series you ride in to be shown here, give me (celia@drmath.ca) a shout!


Index Page
ATT OTT WTT AATT CFCTT VVVTT
Help resultformat:
Case-sensitive

OBC Open TT Series - 2009-Jun-25 - 15km (Rockliffe Pkwy) (EvtFactor = 0.9598)

Weather (18:00): Mostly Cloudy. Temp.: 30C, Humidity: 39%, Dew Point: 15C, Wind: WSW 11km/h, Pressure: 100.2kPa, Vis: 24km, Humidex: 34.
Weather (19:00): Cloudy. Temp.: 29C, Humidity: 41%, Dew Point: 14C, Wind: WNW 9km/h, Pressure: 100.2kPa, Vis: 24km, Humidex: 33.
Weather (20:00): Partly Cloudy. Temp.: 29C, Humidity: 43%, Dew Point: 15C, Wind: S 8km/h, Pressure: 100.2kPa, Vis: 24km, Humidex: 33.

Send photos with description (when/where/what) of yourself on or off of bike to celia@drmath.ca

Though nine of these results were first posted on the OBC web site circa 10:30 on 2009-Jun-26, due to problems with the OBC tt input software, the rest of the results did not appear until about 14:30 on 2009-Jun-28. I continue to offer my volunteer labour and software towards the accuracy/promptness of our displayed results. It may be time for cranky politics to take a back seat to skill, dedication and fun!

Wow, there were some fantastic performances tonight! First place Douglas van den Ham took more than half a minute off of his previous best to post his first sub-20 minute time, while Sue Schlatter took another two seconds off of her PB and moved to only 13 seconds off of the all-time women's course record. There were excellent age-category performances as well. Certainly Sue Schlatter continues to better the Vet B women. Matteo Dal-Cin set an all-time best for the Junior male category with his first sub-20 time, 25 seconds faster than Andrew Lattimore's previous mark set in 2008. At the other edge of the age categories, Rick Sudac, who continues to add to the top of the Veteran D male list, did 20:05, and is almost certain to bring that record to below 20 minutes. In terms of personal bests, of the 60 who had ridden earlier in the 2009 OTT series, 39 improved and 2 tied their previous 2009 OTT best, whereas 21 of 68 riders improved upon their previous database best. It is interesting to look at tonight's results in terms of the age-handicapping method currently used in the OBC, or more interestingly for the women and older people, at the age-gender handicaps generated from the British VTTA method.

The humour of the evening was provided by Kevin Graves, AKA "Gravy". About a kilometer into his ride, his seat post slipped down about 10". Since he was on a fixed gear bike, standing was not a viable option, so he continued riding, in his words, "like a clown", seated with his knees flailing out to the sides to avoid hitting the handlebars - He enjoyed himself and was pleased with his time considering the circumstances.

 
 

BESTS?
 
1 van den Ham, Douglas  OBC/EMD 19:30 46.154 1/71 VAM 1/10 1.0870
2 Dal-Cin, Matteo  EUR 19:32 46.075 2/71 JUM 1/4 1.1644
3 Rendall, Glen  RWR 19:33 46.036 3/71 VBM 1/12 0.9646
Y 4 Datars, Paul  OBC/RWR 19:39 45.802 4/71 VCM 1/14 1.0026
Y 5 Sudac, Rick  OBC/RWR 20:05 44.813 5/71 VDM 1/7 1.0713
6 Schlatter, Sue  EMD 20:19 44.299 6/71 VBF 1/10 1.0050
7 Munden, David EMD 20:33 43.796 7/71 VAM 2/10 1.0723
Parniak, Robert  --- 20:33 43.796 7/71 VAM 2/10 1.0122
9 Campbell, Colin  OBC 21:05 42.688 9/71 VBM 2/12 0.9812
Morvan, Jacques  OBC 21:05 42.688 9/71 VDM 2/7 1.0531
11 Newell, Nicholas --- 21:11 42.486 11/71 SEM 1/7 1.0047
12 Wright, Sean CYC 21:12 42.453 12/71 VBM 3/12 1.0552
13 Tregunno, Peter  OBC 21:13 42.419 13/71 VAM 4/10 1.0213
14 Graves, Kevin
(seat post went down about 10"!)
WQW 21:14 42.386 14/71 SEM 2/7 0.8977
15 Budgell, Glen  OBC 21:18 42.254 15/71 VCM 2/14 1.0746
16 Cameron, Allen  OBC/RWR 21:20 42.188 16/71 VCM 3/14 1.0094
17 Lapointe, Marc EMD 21:34 41.731 17/71 VAM 5/10  
18 Zuliani, Greg EMD 21:35 41.699 18/71 SEM 3/7 0.8886
19 Henschel, Peter OBC 21:36 41.667 19/71 VBM 4/12  
20 McKay, Allison  OBC/RDO 21:38 41.602 20/71 VBF 2/10 1.0139
21 Moerman, Bram  OBC 21:47 41.316 21/71 VDM 3/7 0.9931
22 Mullington, Chris WQW 21:52 41.159 22/71 VCM 4/14 0.9684
23 Morewood, Colin OBC 21:57 41.002 23/71 JUM 2/4 1.0137
24 Miner, Chris OBC 22:04 40.785 24/71 VBM 5/12 1.0838
25 Sargent, Larry OBC 22:05 40.755 25/71 VCM 5/14 0.9665
26 McCutcheon, Drew OBC 22:07 40.693 26/71 VAM 6/10 1.0931
Posthuma, Hans  OBC 22:07 40.693 26/71 VCM 6/14 1.0435
28 Armstrong, Brian OBC 22:09 40.632 28/71 VBM 6/12 0.9403
29 Bernard, Christopher APK 22:16 40.419 29/71 JUM 3/4  
30 Orange, Kiernan RWR 22:28 40.059 30/71 JUM 4/4 0.9626
31 Weiser, Paul OBC 22:40 39.706 31/71 VDM 4/7 1.0000
32 DeVidi, Robert  OBC 22:42 39.648 32/71 VBM 7/12  
33 Boulanger, Gaetan  OBC 22:44 39.589 33/71 VDM 5/7 1.0000
34 Hess, Detlef OBC 22:51 39.387 34/71 VCM 7/14 1.0110
35 Langevin, Roger  OBC 22:53 39.330 35/71 VAM 7/10 1.0899
36 Robitaille, Brian  OBC 22:56 39.244 36/71 VBM 8/12 1.0920
37 Dorego, Jean-Louis OBC 23:02 39.074 37/71 VCM 8/14 1.0508
38 Reissner, Leslie OBC 23:03 39.046 38/71 VCM 9/14 1.0307
39 Medaglia, Tyler OBC 23:05 38.989 39/71 SEM 4/7 1.0641
40 Schuck, Peter  OBC 23:12 38.793 40/71 VCM 10/14 0.8861
41 Cheney, Paul OBC 23:19 38.599 41/71 VDM 6/7 1.0086
42 Blagdon, Wendy  CYC 23:24 38.462 42/71 VBF 3/10 0.9537
43 Coldwell, Michael  ABC 23:29 38.325 43/71 VBM 9/12  
44 Deavy, Carol  OBC 23:36 38.136 44/71 VBF 4/10 0.9937
45 Henry, Mike --- 23:50 37.762 45/71 VAM 8/10 1.0127
46 Yaeger, Dave  OBC 23:51 37.736 46/71 VCM 11/14  
47 Burge, Larry  OBC 23:57 37.578 47/71 VBM 10/12 0.9386
Phillips, Ron OBC 23:57 37.578 47/71 VDM 7/7 1.1103
49 Marleau, Dianne  OBC/RWR 23:58 37.552 49/71 VBF 5/10 0.9347
50 Leslie, Brian OBC 24:09 37.267 50/71 VAM 9/10  
51 Samborsky, Mark OBC 24:17 37.062 51/71 VBM 11/12 0.9654
52 Ingham, Alison  OBC/RWR 24:21 36.961 52/71 VBF 6/10 0.9555
53 Hauschildt, Gunter OBC 24:22 36.936 53/71 VBM 12/12  
54 McKay, Andrea  OBC 24:24 36.885 54/71 VBF 7/10 1.0289
55 Campbell, Greg OBC 24:32 36.685 55/71 VAM 10/10 0.8115
McKinnon, Carrie OBC 24:32 36.685 55/71 VBF 8/10 1.0144
57 Simard, Martin OBC 24:35 36.610 57/71 VCM 12/14 1.0204
58 Couturier-Lamy, Felix OBC 24:43 36.413 58/71 MIM 1/1 1.6291
59 Levi, Cheryl OBC 24:46 36.339 59/71 VBF 9/10 1.1392
60 McInnis, Celia  OBC/ABC 24:52 36.193 60/71 VCF 1/1 0.9603
61 Medaglia, Jeremy OBC 24:56 36.096 61/71 SEM 5/7 1.0100
Y 62 Gray, Leona  OBC 24:58 36.048 62/71 VDF 1/1 1.1601
63 van Zandvoort, Mike --- 25:00 36.000 63/71 SEM 6/7 1.0488
64 McLaughlin, Brian OBC 25:14 35.667 64/71 VCM 13/14  
65 McLaren, Louise  OBC 25:52 34.794 65/71 VBF 10/10 1.0612
66 Flynn, Emily  RWR 26:16 34.264 66/71 CAF 1/1 1.0192
67 Essex, Ken OBC 26:58 33.375 67/71 SEM 7/7  
68 Ramcharan, John OBC 28:02 32.105 68/71 VCM 14/14 1.1282
69 Johnson, Laura  OBC/CYF 28:52 31.178 69/71 VAF 1/1 1.1777
70 Lansing, Melissa  CYF 29:46 30.235 70/71 SEF 1/1 0.9983
71 Burdett, Avery 
(Hit pedal at the turn around)
OBC DNF   71/71 VEM 1/1  
 
Average Speed of all of the above 70 finishes (1050km in 26:54:33):39.020
>>>Average of the Average Speeds for these 70 finishes39.327<<<
 

The number of data records shown above is 71
The server processing of your query took: 1 wallclock secs ( 0.10 usr + 0.00 sys = 0.10 CPU)

Thanks to our Helpers: Audrey Bernard, Neil Farish, Leona Gray, Gunter Hauschildt, Paula Hickman, Alex McKnight, Stephanie Rees, Gary Romkey.

     


Apr 10 (Good Friday)
May 5 (10km) May 7 May 12 (10km) May 14 May 19 May 19 (10km) May 21 May 26 May 26 (10km) May 28 May 31 (40km)
Jun 2 Jun 2 Jun 4 Jun 9 Jun 9 Jun 11 Jun 16 Jun 16 Jun 18 Jun 23 Jun 23
  Jun 25  
Jun 30 Jun 30
Jul 2 Jul 5 (40km) Jul 7 Jul 7 (10km) Jul 9 (10km) Jul 12 (40km) Jul 14 Jul 14 (10km) Jul 16 (10km) Jul 21 Jul 21 (10km) Jul 23 Jul 23 (10km) Jul 28 Jul 28 (10km) Jul 30 (10km)
Aug 4 (cancelled - thunder storm) Aug 4 (10km) (cancelled - thunder storm) Aug 6 (10km) Aug 9 (40km) Aug 11 Aug 11 (10km) Aug 13 (10km) Aug 18 Aug 18 (10km) Aug 20 (10km) (cancelled - construction) Aug 25 Aug 25 (Invitational) Aug 27
Sep 1 Sep 3 Sep 8 Sep 10 Sep 13 (40km) Sep 15 Sep 22 Sep 29

OTT Rankings
Best       Best by category
WTT Rankings for OBC Members
4 Best Speeds     4 Best Speeds by category
OBC Member Best Three 15km Rankings
Overall     by category     age-Hcap Female   age-Hcap Male
OBC BAR Ranking
Overall     by category     Rider "Consistency-Graph"
ABC BAR Ranking
Overall     by category     Rider "Consistency-Graph"
Other years
TT Calculator All TT People All TT events
ABC Home VVV Home
CKAP GOLD MEDAL
Other Links

Note: OTT data from 2003 through 2006-Apr-14 and 2007-Apr-06-? and WTT from 2008-? is taken from the official OBC site.

Please send your comments and suggestions to: Celia McInnis
Copyright © 1998-2011 Celia McInnis. All rights reserved. Links are welcomed.